sensor_id;sensor_type;location;lat;lon;timestamp;pressure;altitude;pressure_sealevel;temperature;humidity
16544;BME280;8384;47.996;7.786;2023-01-25T00:00:00;100305.69;;;1.92;100.00
16544;BME280;8384;47.996;7.786;2023-01-25T00:02:26;100247.88;;;1.78;99.59
16544;BME280;8384;47.996;7.786;2023-01-25T00:04:52;100301.00;;;2.19;98.17
16544;BME280;8384;47.996;7.786;2023-01-25T00:07:17;100297.97;;;2.22;98.31
16544;BME280;8384;47.996;7.786;2023-01-25T00:09:42;100271.66;;;1.91;98.91
16544;BME280;8384;47.996;7.786;2023-01-25T00:12:07;100267.63;;;2.04;98.58
16544;BME280;8384;47.996;7.786;2023-01-25T00:14:33;100282.63;;;2.15;98.40
16544;BME280;8384;47.996;7.786;2023-01-25T00:16:58;100282.13;;;2.28;97.57
16544;BME280;8384;47.996;7.786;2023-01-25T00:19:23;100264.06;;;2.03;97.88
16544;BME280;8384;47.996;7.786;2023-01-25T00:21:49;100276.91;;;2.18;97.30
16544;BME280;8384;47.996;7.786;2023-01-25T00:24:14;100267.28;;;2.07;97.26
16544;BME280;8384;47.996;7.786;2023-01-25T00:26:40;100262.38;;;2.02;97.55
16544;BME280;8384;47.996;7.786;2023-01-25T00:29:10;100283.66;;;2.22;97.74
16544;BME280;8384;47.996;7.786;2023-01-25T00:31:43;100249.75;;;1.94;97.34
16544;BME280;8384;47.996;7.786;2023-01-25T00:34:28;100282.66;;;2.23;97.77
16544;BME280;8384;47.996;7.786;2023-01-25T00:37:02;100280.28;;;2.20;97.70
16544;BME280;8384;47.996;7.786;2023-01-25T00:39:34;100272.19;;;2.20;98.36
16544;BME280;8384;47.996;7.786;2023-01-25T00:42:00;100247.88;;;1.87;98.74
16544;BME280;8384;47.996;7.786;2023-01-25T00:44:25;100270.16;;;2.22;97.71
16544;BME280;8384;47.996;7.786;2023-01-25T00:46:53;100267.81;;;2.19;97.73
16544;BME280;8384;47.996;7.786;2023-01-25T00:49:21;100236.94;;;1.80;99.02
16544;BME280;8384;47.996;7.786;2023-01-25T00:51:49;100182.81;;;1.57;98.51
16544;BME280;8384;47.996;7.786;2023-01-25T00:54:15;100264.56;;;2.15;97.91
16544;BME280;8384;47.996;7.786;2023-01-25T00:56:41;100136.50;;;1.28;98.00
16544;BME280;8384;47.996;7.786;2023-01-25T00:59:08;100284.66;;;2.13;98.52
16544;BME280;8384;47.996;7.786;2023-01-25T01:01:33;100250.59;;;1.95;100.00
16544;BME280;8384;47.996;7.786;2023-01-25T01:03:59;100228.84;;;2.13;98.12
16544;BME280;8384;47.996;7.786;2023-01-25T01:06:24;100249.59;;;2.13;98.42
16544;BME280;8384;47.996;7.786;2023-01-25T01:08:49;100234.94;;;2.07;98.89
16544;BME280;8384;47.996;7.786;2023-01-25T01:11:15;100243.16;;;2.05;99.83
16544;BME280;8384;47.996;7.786;2023-01-25T01:13:40;100214.50;;;2.04;97.96
16544;BME280;8384;47.996;7.786;2023-01-25T01:16:07;100238.63;;;2.22;97.17
16544;BME280;8384;47.996;7.786;2023-01-25T01:18:37;100256.00;;;2.20;97.07
16544;BME280;8384;47.996;7.786;2023-01-25T01:21:02;100231.88;;;2.02;98.51
16544;BME280;8384;47.996;7.786;2023-01-25T01:23:29;100252.97;;;1.98;100.00
16544;BME280;8384;47.996;7.786;2023-01-25T01:25:54;100242.50;;;2.20;99.02
16544;BME280;8384;47.996;7.786;2023-01-25T01:28:20;100256.66;;;2.30;97.01
16544;BME280;8384;47.996;7.786;2023-01-25T01:30:45;100233.41;;;2.13;97.24
16544;BME280;8384;47.996;7.786;2023-01-25T01:33:10;100202.72;;;1.80;97.77
16544;BME280;8384;47.996;7.786;2023-01-25T01:35:35;100249.59;;;1.96;99.90
16544;BME280;8384;47.996;7.786;2023-01-25T01:38:01;100252.63;;;2.09;99.64
16544;BME280;8384;47.996;7.786;2023-01-25T01:40:26;100254.28;;;2.02;98.84
16544;BME280;8384;47.996;7.786;2023-01-25T01:42:59;100159.41;;;1.49;98.91
16544;BME280;8384;47.996;7.786;2023-01-25T01:48:49;100245.38;;;2.10;98.29
16544;BME280;8384;47.996;7.786;2023-01-25T01:54:28;100221.09;;;1.85;99.10
16544;BME280;8384;47.996;7.786;2023-01-25T01:56:57;100250.06;;;1.91;nan
16544;BME280;8384;47.996;7.786;2023-01-25T01:59:26;100209.09;;;1.55;100.00
16544;BME280;8384;47.996;7.786;2023-01-25T02:01:53;100239.97;;;1.77;100.00
16544;BME280;8384;47.996;7.786;2023-01-25T02:04:19;100237.78;;;1.89;100.00
16544;BME280;8384;47.996;7.786;2023-01-25T02:09:38;100226.16;;;1.97;100.00
16544;BME280;8384;47.996;7.786;2023-01-25T02:12:05;100198.84;;;1.75;99.61
16544;BME280;8384;47.996;7.786;2023-01-25T02:14:32;100241.00;;;2.09;98.74
16544;BME280;8384;47.996;7.786;2023-01-25T02:16:58;100211.31;;;2.01;98.27
16544;BME280;8384;47.996;7.786;2023-01-25T02:20:08;100218.56;;;1.92;99.60
16544;BME280;8384;47.996;7.786;2023-01-25T02:22:46;100220.94;;;1.95;99.76
16544;BME280;8384;47.996;7.786;2023-01-25T02:25:15;100217.03;;;1.89;100.00
16544;BME280;8384;47.996;7.786;2023-01-25T02:27:44;100226.47;;;1.93;100.00
16544;BME280;8384;47.996;7.786;2023-01-25T02:30:11;100201.38;;;1.85;99.43
16544;BME280;8384;47.996;7.786;2023-01-25T02:32:37;100227.31;;;1.77;100.00
16544;BME280;8384;47.996;7.786;2023-01-25T02:35:03;100227.50;;;1.92;99.72
16544;BME280;8384;47.996;7.786;2023-01-25T02:37:28;100227.34;;;1.94;98.82
16544;BME280;8384;47.996;7.786;2023-01-25T02:39:54;100188.56;;;1.62;99.15
16544;BME280;8384;47.996;7.786;2023-01-25T02:42:19;100228.00;;;1.71;99.58
16544;BME280;8384;47.996;7.786;2023-01-25T02:44:45;100206.94;;;1.75;100.00
16544;BME280;8384;47.996;7.786;2023-01-25T02:47:11;100237.09;;;1.87;99.54
16544;BME280;8384;47.996;7.786;2023-01-25T02:49:36;100214.84;;;1.76;100.00
16544;BME280;8384;47.996;7.786;2023-01-25T02:52:02;100229.34;;;2.00;99.93
16544;BME280;8384;47.996;7.786;2023-01-25T02:54:28;100204.75;;;1.70;99.88
16544;BME280;8384;47.996;7.786;2023-01-25T02:56:54;100222.59;;;2.04;99.65
16544;BME280;8384;47.996;7.786;2023-01-25T02:59:19;100212.16;;;2.01;98.22
16544;BME280;8384;47.996;7.786;2023-01-25T03:01:44;100217.72;;;1.91;99.01
16544;BME280;8384;47.996;7.786;2023-01-25T03:04:10;100228.50;;;1.91;100.00
16544;BME280;8384;47.996;7.786;2023-01-25T03:06:36;100226.31;;;1.78;100.00
16544;BME280;8384;47.996;7.786;2023-01-25T03:09:03;100209.81;;;1.90;100.00
16544;BME280;8384;47.996;7.786;2023-01-25T03:11:29;100201.38;;;1.85;99.96
16544;BME280;8384;47.996;7.786;2023-01-25T03:13:54;100187.56;;;1.63;100.00
16544;BME280;8384;47.996;7.786;2023-01-25T03:16:19;100192.94;;;1.55;100.00
16544;BME280;8384;47.996;7.786;2023-01-25T03:18:45;100207.59;;;1.93;100.00
16544;BME280;8384;47.996;7.786;2023-01-25T03:21:12;100201.72;;;1.90;99.59
16544;BME280;8384;47.996;7.786;2023-01-25T03:23:38;100184.88;;;1.63;100.00
16544;BME280;8384;47.996;7.786;2023-01-25T03:26:05;100207.47;;;1.95;100.00
16544;BME280;8384;47.996;7.786;2023-01-25T03:28:31;100190.75;;;2.08;97.36
16544;BME280;8384;47.996;7.786;2023-01-25T03:30:56;100180.81;;;1.75;99.28
16544;BME280;8384;47.996;7.786;2023-01-25T03:33:22;100181.81;;;1.58;100.00
16544;BME280;8384;47.996;7.786;2023-01-25T03:35:51;100151.66;;;1.87;99.28
16544;BME280;8384;47.996;7.786;2023-01-25T03:38:16;100189.56;;;2.10;98.08
16544;BME280;8384;47.996;7.786;2023-01-25T03:40:43;100150.97;;;1.93;97.26
16544;BME280;8384;47.996;7.786;2023-01-25T03:43:08;100165.50;;;1.76;98.26
16544;BME280;8384;47.996;7.786;2023-01-25T03:45:34;100162.97;;;1.91;99.69
16544;BME280;8384;47.996;7.786;2023-01-25T03:47:59;100167.84;;;2.04;98.75
16544;BME280;8384;47.996;7.786;2023-01-25T03:50:24;100155.19;;;2.04;96.52
16544;BME280;8384;47.996;7.786;2023-01-25T03:52:49;100173.22;;;1.95;97.41
16544;BME280;8384;47.996;7.786;2023-01-25T03:55:23;100154.88;;;1.91;98.06
16544;BME280;8384;47.996;7.786;2023-01-25T03:57:48;100139.88;;;1.72;99.23
16544;BME280;8384;47.996;7.786;2023-01-25T04:00:14;100171.88;;;2.08;98.84
16544;BME280;8384;47.996;7.786;2023-01-25T04:02:40;100164.63;;;1.84;98.26
16544;BME280;8384;47.996;7.786;2023-01-25T04:05:05;100165.97;;;1.79;99.76
16544;BME280;8384;47.996;7.786;2023-01-25T04:07:31;100177.78;;;1.87;99.44
16544;BME280;8384;47.996;7.786;2023-01-25T04:09:58;100168.84;;;2.03;97.46
16544;BME280;8384;47.996;7.786;2023-01-25T04:12:23;100154.53;;;1.69;98.96
16544;BME280;8384;47.996;7.786;2023-01-25T04:14:48;100173.72;;;1.99;100.00
16544;BME280;8384;47.996;7.786;2023-01-25T04:17:13;100180.50;;;1.95;98.06
16544;BME280;8384;47.996;7.786;2023-01-25T04:19:39;100160.63;;;1.71;99.42
16544;BME280;8384;47.996;7.786;2023-01-25T04:22:04;100182.66;;;1.91;100.00
16544;BME280;8384;47.996;7.786;2023-01-25T04:24:29;100186.22;;;1.84;100.00
16544;BME280;8384;47.996;7.786;2023-01-25T04:26:54;100181.50;;;1.94;99.57
16544;BME280;8384;47.996;7.786;2023-01-25T04:29:20;100128.25;;;1.63;98.74
16544;BME280;8384;47.996;7.786;2023-01-25T04:31:45;100168.19;;;1.76;99.93
16544;BME280;8384;47.996;7.786;2023-01-25T04:34:10;100150.66;;;1.72;100.00
16544;BME280;8384;47.996;7.786;2023-01-25T04:36:35;100167.31;;;2.00;100.00
16544;BME280;8384;47.996;7.786;2023-01-25T04:39:01;100132.47;;;1.57;99.53
16544;BME280;8384;47.996;7.786;2023-01-25T04:41:26;100164.47;;;1.60;100.00
16544;BME280;8384;47.996;7.786;2023-01-25T04:43:53;100164.28;;;2.03;98.73
16544;BME280;8384;47.996;7.786;2023-01-25T04:46:18;100143.75;;;1.53;99.25
16544;BME280;8384;47.996;7.786;2023-01-25T04:48:44;100149.09;;;1.28;100.00
16544;BME280;8384;47.996;7.786;2023-01-25T04:51:09;100148.78;;;1.47;100.00
16544;BME280;8384;47.996;7.786;2023-01-25T04:53:34;100148.47;;;1.59;100.00
16544;BME280;8384;47.996;7.786;2023-01-25T04:55:59;100160.94;;;1.85;100.00
16544;BME280;8384;47.996;7.786;2023-01-25T04:58:25;100149.13;;;1.86;99.71
16544;BME280;8384;47.996;7.786;2023-01-25T05:00:50;100129.91;;;1.72;99.04
16544;BME280;8384;47.996;7.786;2023-01-25T05:03:15;100164.63;;;2.08;97.86
16544;BME280;8384;47.996;7.786;2023-01-25T05:05:45;100153.81;;;2.08;97.46
16544;BME280;8384;47.996;7.786;2023-01-25T05:08:11;100139.66;;;2.06;96.91
16544;BME280;8384;47.996;7.786;2023-01-25T05:10:36;100151.00;;;1.85;97.00
16544;BME280;8384;47.996;7.786;2023-01-25T05:13:02;100159.06;;;1.93;98.92
16544;BME280;8384;47.996;7.786;2023-01-25T05:15:27;100125.69;;;1.86;97.81
16544;BME280;8384;47.996;7.786;2023-01-25T05:17:52;100147.94;;;1.97;97.23
16544;BME280;8384;47.996;7.786;2023-01-25T05:20:17;100120.50;;;1.43;99.21
16544;BME280;8384;47.996;7.786;2023-01-25T05:22:43;100152.00;;;1.84;99.14
16544;BME280;8384;47.996;7.786;2023-01-25T05:25:08;100105.66;;;1.47;99.01
16544;BME280;8384;47.996;7.786;2023-01-25T05:27:53;100112.56;;;1.33;99.60
16544;BME280;8384;47.996;7.786;2023-01-25T05:30:19;100121.00;;;1.47;100.00
16544;BME280;8384;47.996;7.786;2023-01-25T05:32:44;100142.91;;;1.77;100.00
16544;BME280;8384;47.996;7.786;2023-01-25T05:35:09;100134.66;;;1.70;100.00
16544;BME280;8384;47.996;7.786;2023-01-25T05:37:34;100094.75;;;1.57;98.94
16544;BME280;8384;47.996;7.786;2023-01-25T05:40:00;100143.75;;;1.44;100.00
16544;BME280;8384;47.996;7.786;2023-01-25T05:42:25;100114.91;;;1.12;100.00
16544;BME280;8384;47.996;7.786;2023-01-25T05:44:50;100131.44;;;1.33;100.00
16544;BME280;8384;47.996;7.786;2023-01-25T05:47:16;100138.34;;;1.53;100.00
16544;BME280;8384;47.996;7.786;2023-01-25T05:49:42;100121.50;;;1.50;100.00
16544;BME280;8384;47.996;7.786;2023-01-25T05:52:14;100144.25;;;1.64;100.00
16544;BME280;8384;47.996;7.786;2023-01-25T05:54:40;100116.28;;;1.41;100.00
16544;BME280;8384;47.996;7.786;2023-01-25T05:57:05;100149.31;;;1.68;100.00
16544;BME280;8384;47.996;7.786;2023-01-25T05:59:30;100129.91;;;1.47;100.00
16544;BME280;8384;47.996;7.786;2023-01-25T06:01:56;100108.72;;;1.53;99.92
16544;BME280;8384;47.996;7.786;2023-01-25T06:04:21;100108.03;;;1.50;99.76
16544;BME280;8384;47.996;7.786;2023-01-25T06:06:46;100149.16;;;1.44;100.00
16544;BME280;8384;47.996;7.786;2023-01-25T06:09:12;100131.44;;;1.25;100.00
16544;BME280;8384;47.996;7.786;2023-01-25T06:11:37;100129.09;;;1.30;100.00
16544;BME280;8384;47.996;7.786;2023-01-25T06:14:03;100117.63;;;1.20;100.00
16544;BME280;8384;47.996;7.786;2023-01-25T06:16:28;100128.94;;;1.40;100.00
16544;BME280;8384;47.996;7.786;2023-01-25T06:18:53;100117.13;;;1.33;100.00
16544;BME280;8384;47.996;7.786;2023-01-25T06:21:19;100116.63;;;1.29;100.00
16544;BME280;8384;47.996;7.786;2023-01-25T06:23:44;100123.72;;;1.30;100.00
16544;BME280;8384;47.996;7.786;2023-01-25T06:26:12;100141.72;;;1.55;100.00
16544;BME280;8384;47.996;7.786;2023-01-25T06:28:38;100120.50;;;1.43;100.00
16544;BME280;8384;47.996;7.786;2023-01-25T06:31:04;100141.22;;;1.43;100.00
16544;BME280;8384;47.996;7.786;2023-01-25T06:33:29;100110.56;;;1.44;100.00
16544;BME280;8384;47.996;7.786;2023-01-25T06:36:11;100141.22;;;1.51;100.00
16544;BME280;8384;47.996;7.786;2023-01-25T06:38:38;100137.50;;;1.60;100.00
16544;BME280;8384;47.996;7.786;2023-01-25T06:41:06;100137.84;;;1.41;100.00
16544;BME280;8384;47.996;7.786;2023-01-25T06:43:33;100130.94;;;1.30;100.00
16544;BME280;8384;47.996;7.786;2023-01-25T06:46:00;100137.19;;;1.47;100.00
16544;BME280;8384;47.996;7.786;2023-01-25T06:48:26;100123.38;;;1.50;100.00
16544;BME280;8384;47.996;7.786;2023-01-25T06:50:59;100129.94;;;1.39;100.00
16544;BME280;8384;47.996;7.786;2023-01-25T06:53:26;100117.63;;;1.28;100.00
16544;BME280;8384;47.996;7.786;2023-01-25T06:55:59;100129.09;;;1.47;100.00
16544;BME280;8384;47.996;7.786;2023-01-25T06:58:26;100141.38;;;1.33;100.00
16544;BME280;8384;47.996;7.786;2023-01-25T07:00:52;100137.50;;;1.35;100.00
16544;BME280;8384;47.996;7.786;2023-01-25T07:03:17;100095.88;;;1.05;100.00
16544;BME280;8384;47.996;7.786;2023-01-25T07:05:42;100091.16;;;0.99;100.00
16544;BME280;8384;47.996;7.786;2023-01-25T07:08:07;100134.63;;;1.29;100.00
16544;BME280;8384;47.996;7.786;2023-01-25T07:10:33;100108.16;;;1.08;100.00
16544;BME280;8384;47.996;7.786;2023-01-25T07:12:58;100129.22;;;1.20;100.00
16544;BME280;8384;47.996;7.786;2023-01-25T07:15:23;100131.94;;;1.29;100.00
16544;BME280;8384;47.996;7.786;2023-01-25T07:17:48;100129.22;;;1.12;100.00
16544;BME280;8384;47.996;7.786;2023-01-25T07:20:14;100103.28;;;1.19;100.00
16544;BME280;8384;47.996;7.786;2023-01-25T07:22:39;100106.34;;;1.25;100.00
16544;BME280;8384;47.996;7.786;2023-01-25T07:25:05;100127.91;;;1.41;100.00
16544;BME280;8384;47.996;7.786;2023-01-25T07:27:33;100097.91;;;1.11;100.00
16544;BME280;8384;47.996;7.786;2023-01-25T07:29:59;100122.53;;;1.33;100.00
16544;BME280;8384;47.996;7.786;2023-01-25T07:32:25;100083.63;;;1.19;100.00
16544;BME280;8384;47.996;7.786;2023-01-25T07:34:51;100100.59;;;1.11;100.00
16544;BME280;8384;47.996;7.786;2023-01-25T07:37:16;100102.31;;;1.29;100.00
16544;BME280;8384;47.996;7.786;2023-01-25T07:39:41;100101.97;;;1.32;100.00
16544;BME280;8384;47.996;7.786;2023-01-25T07:42:12;100118.31;;;1.39;100.00
16544;BME280;8384;47.996;7.786;2023-01-25T07:44:38;100103.66;;;1.25;100.00
16544;BME280;8384;47.996;7.786;2023-01-25T07:47:03;100125.72;;;1.37;100.00
16544;BME280;8384;47.996;7.786;2023-01-25T07:49:28;100128.75;;;1.42;100.00
16544;BME280;8384;47.996;7.786;2023-01-25T07:51:53;100113.91;;;1.38;100.00
16544;BME280;8384;47.996;7.786;2023-01-25T07:54:19;100110.41;;;1.37;100.00
16544;BME280;8384;47.996;7.786;2023-01-25T07:56:44;100121.69;;;1.32;100.00
16544;BME280;8384;47.996;7.786;2023-01-25T07:59:09;100099.78;;;1.35;100.00
16544;BME280;8384;47.996;7.786;2023-01-25T08:01:35;100117.47;;;1.30;100.00
16544;BME280;8384;47.996;7.786;2023-01-25T08:04:02;100105.00;;;1.37;100.00
16544;BME280;8384;47.996;7.786;2023-01-25T08:06:30;100104.50;;;1.25;100.00
16544;BME280;8384;47.996;7.786;2023-01-25T08:09:01;100103.66;;;1.16;100.00
16544;BME280;8384;47.996;7.786;2023-01-25T08:11:30;100117.28;;;1.23;100.00
16544;BME280;8384;47.996;7.786;2023-01-25T08:13:56;100108.19;;;1.16;100.00
16544;BME280;8384;47.996;7.786;2023-01-25T08:16:24;100096.91;;;1.12;100.00
16544;BME280;8384;47.996;7.786;2023-01-25T08:18:51;100080.06;;;1.02;100.00
16544;BME280;8384;47.996;7.786;2023-01-25T08:21:17;100105.16;;;1.19;100.00
16544;BME280;8384;47.996;7.786;2023-01-25T08:23:42;100102.97;;;1.23;100.00
16544;BME280;8384;47.996;7.786;2023-01-25T08:26:10;100104.16;;;1.20;100.00
16544;BME280;8384;47.996;7.786;2023-01-25T08:28:36;100103.84;;;1.31;100.00
16544;BME280;8384;47.996;7.786;2023-01-25T08:33:31;100101.81;;;1.25;100.00
16544;BME280;8384;47.996;7.786;2023-01-25T08:35:57;100104.16;;;1.28;100.00
16544;BME280;8384;47.996;7.786;2023-01-25T08:38:22;100086.50;;;1.34;100.00
16544;BME280;8384;47.996;7.786;2023-01-25T08:40:47;100079.41;;;1.33;100.00
16544;BME280;8384;47.996;7.786;2023-01-25T08:43:13;100068.97;;;1.38;100.00
16544;BME280;8384;47.996;7.786;2023-01-25T08:45:38;100087.81;;;1.55;100.00
16544;BME280;8384;47.996;7.786;2023-01-25T08:48:03;100095.91;;;1.63;100.00
16544;BME280;8384;47.996;7.786;2023-01-25T08:50:29;100089.84;;;1.61;100.00
16544;BME280;8384;47.996;7.786;2023-01-25T08:52:54;100066.94;;;1.57;100.00
16544;BME280;8384;47.996;7.786;2023-01-25T08:55:19;100081.09;;;1.67;100.00
16544;BME280;8384;47.996;7.786;2023-01-25T08:57:45;100082.25;;;1.64;99.74
16544;BME280;8384;47.996;7.786;2023-01-25T09:00:10;100077.19;;;1.61;100.00
16544;BME280;8384;47.996;7.786;2023-01-25T09:02:36;100076.19;;;1.71;99.19
16544;BME280;8384;47.996;7.786;2023-01-25T09:05:01;100094.88;;;1.80;100.00
16544;BME280;8384;47.996;7.786;2023-01-25T09:07:26;100087.47;;;1.74;99.53
16544;BME280;8384;47.996;7.786;2023-01-25T09:09:51;100093.19;;;1.79;99.37
16544;BME280;8384;47.996;7.786;2023-01-25T09:12:17;100098.09;;;1.76;99.79
16544;BME280;8384;47.996;7.786;2023-01-25T09:14:42;100090.16;;;1.74;100.00
16544;BME280;8384;47.996;7.786;2023-01-25T09:17:08;100072.66;;;1.70;100.00
16544;BME280;8384;47.996;7.786;2023-01-25T09:19:34;100081.53;;;1.87;99.02
16544;BME280;8384;47.996;7.786;2023-01-25T09:21:59;100063.72;;;1.78;98.52
16544;BME280;8384;47.996;7.786;2023-01-25T09:24:24;100077.81;;;1.97;98.54
16544;BME280;8384;47.996;7.786;2023-01-25T09:26:49;100094.34;;;1.93;98.96
16544;BME280;8384;47.996;7.786;2023-01-25T09:29:15;100096.03;;;2.03;97.60
16544;BME280;8384;47.996;7.786;2023-01-25T09:31:40;100057.66;;;1.84;97.27
16544;BME280;8384;47.996;7.786;2023-01-25T09:34:10;100061.66;;;1.88;98.31
16544;BME280;8384;47.996;7.786;2023-01-25T09:36:36;100093.47;;;2.09;96.49
16544;BME280;8384;47.996;7.786;2023-01-25T09:39:02;100097.53;;;2.05;96.59
16544;BME280;8384;47.996;7.786;2023-01-25T09:44:40;100088.09;;;2.01;96.54
16544;BME280;8384;47.996;7.786;2023-01-25T09:47:12;100081.38;;;1.89;97.97
16544;BME280;8384;47.996;7.786;2023-01-25T09:49:57;100080.91;;;1.77;97.96
16544;BME280;8384;47.996;7.786;2023-01-25T09:55:14;100086.06;;;2.03;97.34
16544;BME280;8384;47.996;7.786;2023-01-25T09:57:42;100090.44;;;2.04;97.50
16544;BME280;8384;47.996;7.786;2023-01-25T10:02:51;100085.56;;;2.08;98.59
16544;BME280;8384;47.996;7.786;2023-01-25T10:05:21;100086.19;;;2.27;96.27
16544;BME280;8384;47.996;7.786;2023-01-25T10:08:07;100077.50;;;2.00;96.61
16544;BME280;8384;47.996;7.786;2023-01-25T10:10:41;100080.53;;;1.97;97.68
16544;BME280;8384;47.996;7.786;2023-01-25T10:13:12;100068.94;;;1.79;98.05
16544;BME280;8384;47.996;7.786;2023-01-25T10:15:49;100047.22;;;1.73;98.56
16544;BME280;8384;47.996;7.786;2023-01-25T10:20:57;100070.06;;;1.93;98.83
16544;BME280;8384;47.996;7.786;2023-01-25T10:26:37;100073.88;;;2.24;97.69
16544;BME280;8384;47.996;7.786;2023-01-25T10:29:19;100067.09;;;2.28;96.69
16544;BME280;8384;47.996;7.786;2023-01-25T10:31:50;100060.41;;;2.16;96.71
16544;BME280;8384;47.996;7.786;2023-01-25T10:34:30;100044.91;;;2.09;97.54
16544;BME280;8384;47.996;7.786;2023-01-25T10:37:01;100035.34;;;1.99;97.43
16544;BME280;8384;47.996;7.786;2023-01-25T10:39:28;100034.34;;;1.91;97.55
16544;BME280;8384;47.996;7.786;2023-01-25T10:42:04;100048.38;;;1.87;98.21
16544;BME280;8384;47.996;7.786;2023-01-25T10:44:32;100040.28;;;1.78;98.55
16544;BME280;8384;47.996;7.786;2023-01-25T10:54:37;100008.13;;;1.77;99.74
16544;BME280;8384;47.996;7.786;2023-01-25T10:57:05;100004.75;;;1.67;99.75
16544;BME280;8384;47.996;7.786;2023-01-25T10:59:31;100007.97;;;1.70;100.00
16544;BME280;8384;47.996;7.786;2023-01-25T11:04:50;99973.94;;;1.69;99.89
16544;BME280;8384;47.996;7.786;2023-01-25T11:07:26;100025.25;;;2.01;99.17
16544;BME280;8384;47.996;7.786;2023-01-25T11:09:53;99995.44;;;1.86;99.37
16544;BME280;8384;47.996;7.786;2023-01-25T11:12:19;100016.38;;;2.23;99.07
16544;BME280;8384;47.996;7.786;2023-01-25T11:14:47;100017.97;;;2.01;98.62
16544;BME280;8384;47.996;7.786;2023-01-25T11:17:28;100013.03;;;2.13;98.18
16544;BME280;8384;47.996;7.786;2023-01-25T11:22:30;100011.44;;;2.35;97.71
16544;BME280;8384;47.996;7.786;2023-01-25T11:24:56;99987.28;;;2.10;97.20
16544;BME280;8384;47.996;7.786;2023-01-25T11:27:23;99998.72;;;2.44;97.79
16544;BME280;8384;47.996;7.786;2023-01-25T11:32:30;99976.03;;;2.30;96.27
16544;BME280;8384;47.996;7.786;2023-01-25T11:34:56;99950.94;;;1.98;97.76
16544;BME280;8384;47.996;7.786;2023-01-25T11:37:48;99964.22;;;2.00;97.98
16544;BME280;8384;47.996;7.786;2023-01-25T11:48:57;99946.00;;;2.02;98.95
16544;BME280;8384;47.996;7.786;2023-01-25T11:51:57;99964.00;;;2.09;98.68
16544;BME280;8384;47.996;7.786;2023-01-25T12:02:34;99955.19;;;2.24;97.12
16544;BME280;8384;47.996;7.786;2023-01-25T12:11:30;99929.34;;;2.30;97.65
16544;BME280;8384;47.996;7.786;2023-01-25T12:14:16;99905.88;;;2.30;97.69
16544;BME280;8384;47.996;7.786;2023-01-25T12:17:14;99919.34;;;2.38;97.12
16544;BME280;8384;47.996;7.786;2023-01-25T12:22:36;99908.34;;;2.40;96.26
16544;BME280;8384;47.996;7.786;2023-01-25T12:25:39;99899.81;;;2.28;97.48
16544;BME280;8384;47.996;7.786;2023-01-25T12:28:19;99892.50;;;2.14;97.19
16544;BME280;8384;47.996;7.786;2023-01-25T12:31:02;99877.72;;;2.33;97.70
16544;BME280;8384;47.996;7.786;2023-01-25T12:39:09;99838.97;;;2.02;97.42
16544;BME280;8384;47.996;7.786;2023-01-25T12:41:57;99859.56;;;2.50;96.90
16544;BME280;8384;47.996;7.786;2023-01-25T12:44:41;99859.75;;;2.25;96.42
16544;BME280;8384;47.996;7.786;2023-01-25T12:47:30;99848.22;;;2.31;96.58
16544;BME280;8384;47.996;7.786;2023-01-25T12:52:32;99850.66;;;2.64;96.20
16544;BME280;8384;47.996;7.786;2023-01-25T12:55:05;99826.38;;;2.41;95.63
16544;BME280;8384;47.996;7.786;2023-01-25T12:57:50;99828.00;;;2.50;95.32
16544;BME280;8384;47.996;7.786;2023-01-25T13:00:25;99845.72;;;2.68;94.48
16544;BME280;8384;47.996;7.786;2023-01-25T13:08:22;99829.97;;;2.57;94.73
16544;BME280;8384;47.996;7.786;2023-01-25T13:10:53;99821.72;;;2.73;93.99
16544;BME280;8384;47.996;7.786;2023-01-25T13:13:24;99811.84;;;2.65;92.46
16544;BME280;8384;47.996;7.786;2023-01-25T13:15:51;99816.03;;;2.68;92.86
16544;BME280;8384;47.996;7.786;2023-01-25T13:20:51;99814.44;;;2.59;92.82
16544;BME280;8384;47.996;7.786;2023-01-25T13:23:33;99814.81;;;2.55;93.22
16544;BME280;8384;47.996;7.786;2023-01-25T13:31:54;99809.41;;;2.32;95.36
16544;BME280;8384;47.996;7.786;2023-01-25T13:37:01;99808.03;;;2.36;94.11
16544;BME280;8384;47.996;7.786;2023-01-25T13:42:22;99803.72;;;2.50;93.52
16544;BME280;8384;47.996;7.786;2023-01-25T13:44:52;99793.78;;;2.51;93.64
16544;BME280;8384;47.996;7.786;2023-01-25T13:47:23;99788.63;;;2.56;92.90
16544;BME280;8384;47.996;7.786;2023-01-25T13:50:02;99797.25;;;2.36;94.00
16544;BME280;8384;47.996;7.786;2023-01-25T13:52:32;99787.31;;;2.37;94.20
16544;BME280;8384;47.996;7.786;2023-01-25T13:54:58;99794.00;;;2.41;94.12
16544;BME280;8384;47.996;7.786;2023-01-25T13:57:27;99796.53;;;2.43;94.36
16544;BME280;8384;47.996;7.786;2023-01-25T14:00:06;99792.72;;;2.52;94.29
16544;BME280;8384;47.996;7.786;2023-01-25T14:02:36;99788.06;;;2.46;93.92
16544;BME280;8384;47.996;7.786;2023-01-25T14:05:03;99787.59;;;2.42;93.86
16544;BME280;8384;47.996;7.786;2023-01-25T14:07:32;99789.56;;;2.48;92.59
16544;BME280;8384;47.996;7.786;2023-01-25T14:10:07;99778.97;;;2.47;93.52
16544;BME280;8384;47.996;7.786;2023-01-25T14:12:40;99776.91;;;2.49;94.19
16544;BME280;8384;47.996;7.786;2023-01-25T14:20:37;99770.97;;;2.53;93.42
16544;BME280;8384;47.996;7.786;2023-01-25T14:23:02;99776.09;;;2.63;93.32
16544;BME280;8384;47.996;7.786;2023-01-25T14:25:31;99773.22;;;2.65;93.95
16544;BME280;8384;47.996;7.786;2023-01-25T14:27:59;99762.03;;;2.68;94.08
16544;BME280;8384;47.996;7.786;2023-01-25T14:30:26;99766.03;;;2.72;92.48
16544;BME280;8384;47.996;7.786;2023-01-25T14:32:54;99775.13;;;2.56;93.38
16544;BME280;8384;47.996;7.786;2023-01-25T14:37:58;99741.03;;;2.25;94.89
16544;BME280;8384;47.996;7.786;2023-01-25T14:40:25;99769.19;;;2.22;95.36
16544;BME280;8384;47.996;7.786;2023-01-25T14:42:52;99762.69;;;2.17;96.38
16544;BME280;8384;47.996;7.786;2023-01-25T14:45:17;99767.63;;;2.28;95.82
16544;BME280;8384;47.996;7.786;2023-01-25T14:47:44;99757.84;;;2.27;95.01
16544;BME280;8384;47.996;7.786;2023-01-25T14:50:32;99758.72;;;2.28;95.15
16544;BME280;8384;47.996;7.786;2023-01-25T14:52:58;99750.34;;;1.99;96.05
16544;BME280;8384;47.996;7.786;2023-01-25T14:55:25;99741.63;;;1.97;96.61
16544;BME280;8384;47.996;7.786;2023-01-25T14:57:51;99743.16;;;1.91;96.82